sensor_id;sensor_type;location;lat;lon;timestamp;P1;durP1;ratioP1;P2;durP2;ratioP2
48268;SDS011;34088;52.232;5.196;2023-07-08T00:00:12;4.97;;;4.00;;
48268;SDS011;34088;52.232;5.196;2023-07-08T00:02:40;8.15;;;3.67;;
48268;SDS011;34088;52.232;5.196;2023-07-08T00:05:07;5.00;;;3.80;;
48268;SDS011;34088;52.232;5.196;2023-07-08T00:07:33;5.80;;;3.60;;
48268;SDS011;34088;52.232;5.196;2023-07-08T00:09:59;8.07;;;4.43;;
48268;SDS011;34088;52.232;5.196;2023-07-08T00:12:24;7.40;;;3.80;;
48268;SDS011;34088;52.232;5.196;2023-07-08T00:14:49;6.78;;;3.50;;
48268;SDS011;34088;52.232;5.196;2023-07-08T00:17:14;7.47;;;3.83;;
48268;SDS011;34088;52.232;5.196;2023-07-08T00:32:37;5.80;;;3.97;;
48268;SDS011;34088;52.232;5.196;2023-07-08T00:35:06;6.30;;;4.10;;
48268;SDS011;34088;52.232;5.196;2023-07-08T00:37:32;7.50;;;4.40;;
48268;SDS011;34088;52.232;5.196;2023-07-08T00:39:57;6.15;;;4.15;;
48268;SDS011;34088;52.232;5.196;2023-07-08T00:42:22;5.25;;;3.78;;
48268;SDS011;34088;52.232;5.196;2023-07-08T00:44:49;7.22;;;3.80;;
48268;SDS011;34088;52.232;5.196;2023-07-08T00:47:15;6.53;;;4.35;;
48268;SDS011;34088;52.232;5.196;2023-07-08T00:49:43;5.93;;;4.10;;
48268;SDS011;34088;52.232;5.196;2023-07-08T00:54:48;8.55;;;4.30;;
48268;SDS011;34088;52.232;5.196;2023-07-08T00:57:15;5.97;;;4.13;;
48268;SDS011;34088;52.232;5.196;2023-07-08T00:59:43;6.50;;;4.30;;
48268;SDS011;34088;52.232;5.196;2023-07-08T01:02:12;7.38;;;4.32;;
48268;SDS011;34088;52.232;5.196;2023-07-08T01:05:42;11.30;;;5.00;;
48268;SDS011;34088;52.232;5.196;2023-07-08T01:07:41;8.70;;;4.38;;
48268;SDS011;34088;52.232;5.196;2023-07-08T01:10:13;6.45;;;4.20;;
48268;SDS011;34088;52.232;5.196;2023-07-08T01:12:43;7.55;;;3.80;;
48268;SDS011;34088;52.232;5.196;2023-07-08T01:15:12;6.28;;;3.70;;
48268;SDS011;34088;52.232;5.196;2023-07-08T01:17:39;7.35;;;4.20;;
48268;SDS011;34088;52.232;5.196;2023-07-08T01:20:07;8.18;;;4.50;;
48268;SDS011;34088;52.232;5.196;2023-07-08T01:22:37;6.68;;;4.53;;
48268;SDS011;34088;52.232;5.196;2023-07-08T01:25:05;6.93;;;4.18;;
48268;SDS011;34088;52.232;5.196;2023-07-08T01:27:32;8.82;;;4.15;;
48268;SDS011;34088;52.232;5.196;2023-07-08T01:30:00;5.68;;;4.03;;
48268;SDS011;34088;52.232;5.196;2023-07-08T01:32:27;8.77;;;4.25;;
48268;SDS011;34088;52.232;5.196;2023-07-08T01:34:54;6.65;;;4.40;;
48268;SDS011;34088;52.232;5.196;2023-07-08T01:37:36;6.72;;;4.05;;
48268;SDS011;34088;52.232;5.196;2023-07-08T01:42:45;6.63;;;3.95;;
48268;SDS011;34088;52.232;5.196;2023-07-08T01:45:14;6.30;;;3.90;;
48268;SDS011;34088;52.232;5.196;2023-07-08T01:47:42;6.07;;;4.45;;
48268;SDS011;34088;52.232;5.196;2023-07-08T01:50:13;7.65;;;4.40;;
48268;SDS011;34088;52.232;5.196;2023-07-08T01:52:38;9.05;;;4.22;;
48268;SDS011;34088;52.232;5.196;2023-07-08T01:55:05;9.40;;;4.40;;
48268;SDS011;34088;52.232;5.196;2023-07-08T01:57:31;7.50;;;4.25;;
48268;SDS011;34088;52.232;5.196;2023-07-08T01:59:56;5.70;;;4.20;;
48268;SDS011;34088;52.232;5.196;2023-07-08T02:02:21;6.72;;;4.30;;
48268;SDS011;34088;52.232;5.196;2023-07-08T02:04:49;5.82;;;4.22;;
48268;SDS011;34088;52.232;5.196;2023-07-08T02:07:14;6.50;;;3.90;;
48268;SDS011;34088;52.232;5.196;2023-07-08T02:09:39;6.82;;;4.30;;
48268;SDS011;34088;52.232;5.196;2023-07-08T02:12:05;9.18;;;4.88;;
48268;SDS011;34088;52.232;5.196;2023-07-08T02:14:30;7.25;;;4.68;;
48268;SDS011;34088;52.232;5.196;2023-07-08T02:16:55;5.47;;;4.00;;
48268;SDS011;34088;52.232;5.196;2023-07-08T02:19:21;7.90;;;4.78;;
48268;SDS011;34088;52.232;5.196;2023-07-08T02:21:47;10.65;;;4.43;;
48268;SDS011;34088;52.232;5.196;2023-07-08T02:24:12;8.05;;;4.43;;
48268;SDS011;34088;52.232;5.196;2023-07-08T02:26:37;7.80;;;4.47;;
48268;SDS011;34088;52.232;5.196;2023-07-08T02:29:03;8.27;;;4.70;;
48268;SDS011;34088;52.232;5.196;2023-07-08T02:31:28;7.13;;;4.22;;
48268;SDS011;34088;52.232;5.196;2023-07-08T02:33:53;5.93;;;4.65;;
48268;SDS011;34088;52.232;5.196;2023-07-08T02:36:19;6.18;;;3.83;;
48268;SDS011;34088;52.232;5.196;2023-07-08T02:38:45;6.03;;;4.32;;
48268;SDS011;34088;52.232;5.196;2023-07-08T02:41:10;6.57;;;4.30;;
48268;SDS011;34088;52.232;5.196;2023-07-08T02:43:36;6.38;;;4.45;;
48268;SDS011;34088;52.232;5.196;2023-07-08T02:46:02;7.80;;;4.68;;
48268;SDS011;34088;52.232;5.196;2023-07-08T02:48:28;6.10;;;4.75;;
48268;SDS011;34088;52.232;5.196;2023-07-08T02:50:57;6.72;;;4.30;;
48268;SDS011;34088;52.232;5.196;2023-07-08T02:53:23;8.23;;;4.50;;
48268;SDS011;34088;52.232;5.196;2023-07-08T02:55:49;8.43;;;4.40;;
48268;SDS011;34088;52.232;5.196;2023-07-08T02:58:14;5.97;;;4.35;;
48268;SDS011;34088;52.232;5.196;2023-07-08T03:00:39;7.65;;;4.70;;
48268;SDS011;34088;52.232;5.196;2023-07-08T03:03:05;5.90;;;4.20;;
48268;SDS011;34088;52.232;5.196;2023-07-08T03:05:30;8.02;;;4.53;;
48268;SDS011;34088;52.232;5.196;2023-07-08T03:07:56;6.90;;;4.22;;
48268;SDS011;34088;52.232;5.196;2023-07-08T03:10:21;6.18;;;4.68;;
48268;SDS011;34088;52.232;5.196;2023-07-08T03:12:46;5.35;;;4.57;;
48268;SDS011;34088;52.232;5.196;2023-07-08T03:15:12;6.38;;;4.20;;
48268;SDS011;34088;52.232;5.196;2023-07-08T03:17:37;6.75;;;4.35;;
48268;SDS011;34088;52.232;5.196;2023-07-08T03:20:02;6.43;;;4.38;;
48268;SDS011;34088;52.232;5.196;2023-07-08T03:22:30;6.82;;;4.28;;
48268;SDS011;34088;52.232;5.196;2023-07-08T03:24:56;7.38;;;4.80;;
48268;SDS011;34088;52.232;5.196;2023-07-08T03:27:21;6.53;;;4.43;;
48268;SDS011;34088;52.232;5.196;2023-07-08T03:29:46;7.32;;;4.30;;
48268;SDS011;34088;52.232;5.196;2023-07-08T03:32:12;6.05;;;4.40;;
48268;SDS011;34088;52.232;5.196;2023-07-08T03:34:37;8.20;;;4.40;;
48268;SDS011;34088;52.232;5.196;2023-07-08T03:37:03;5.85;;;4.40;;
48268;SDS011;34088;52.232;5.196;2023-07-08T03:39:29;6.97;;;4.55;;
48268;SDS011;34088;52.232;5.196;2023-07-08T03:41:56;8.65;;;4.75;;
48268;SDS011;34088;52.232;5.196;2023-07-08T03:44:21;7.75;;;4.05;;
48268;SDS011;34088;52.232;5.196;2023-07-08T03:46:47;7.25;;;4.80;;
48268;SDS011;34088;52.232;5.196;2023-07-08T03:49:17;8.68;;;5.18;;
48268;SDS011;34088;52.232;5.196;2023-07-08T03:51:49;8.43;;;4.60;;
48268;SDS011;34088;52.232;5.196;2023-07-08T03:54:17;5.63;;;4.50;;
48268;SDS011;34088;52.232;5.196;2023-07-08T03:56:43;8.20;;;4.78;;
48268;SDS011;34088;52.232;5.196;2023-07-08T03:59:09;8.43;;;4.97;;
48268;SDS011;34088;52.232;5.196;2023-07-08T04:01:34;7.30;;;5.18;;
48268;SDS011;34088;52.232;5.196;2023-07-08T04:04:00;5.45;;;4.20;;
48268;SDS011;34088;52.232;5.196;2023-07-08T04:06:26;9.25;;;4.63;;
48268;SDS011;34088;52.232;5.196;2023-07-08T04:08:56;9.63;;;4.93;;
48268;SDS011;34088;52.232;5.196;2023-07-08T04:11:22;6.45;;;4.88;;
48268;SDS011;34088;52.232;5.196;2023-07-08T04:13:48;7.55;;;4.85;;
48268;SDS011;34088;52.232;5.196;2023-07-08T04:16:16;7.07;;;4.18;;
48268;SDS011;34088;52.232;5.196;2023-07-08T04:18:44;10.32;;;4.60;;
48268;SDS011;34088;52.232;5.196;2023-07-08T04:21:10;6.85;;;4.70;;
48268;SDS011;34088;52.232;5.196;2023-07-08T04:23:35;5.88;;;4.53;;
48268;SDS011;34088;52.232;5.196;2023-07-08T04:26:00;6.25;;;4.70;;
48268;SDS011;34088;52.232;5.196;2023-07-08T04:28:26;8.25;;;5.47;;
48268;SDS011;34088;52.232;5.196;2023-07-08T04:30:51;8.48;;;5.15;;
48268;SDS011;34088;52.232;5.196;2023-07-08T04:33:17;7.75;;;4.65;;
48268;SDS011;34088;52.232;5.196;2023-07-08T04:35:43;5.60;;;4.63;;
48268;SDS011;34088;52.232;5.196;2023-07-08T04:38:21;5.70;;;4.80;;
48268;SDS011;34088;52.232;5.196;2023-07-08T04:40:51;7.63;;;4.88;;
48268;SDS011;34088;52.232;5.196;2023-07-08T04:43:17;7.57;;;5.20;;
48268;SDS011;34088;52.232;5.196;2023-07-08T04:45:43;10.23;;;4.80;;
48268;SDS011;34088;52.232;5.196;2023-07-08T04:48:13;8.32;;;4.82;;
48268;SDS011;34088;52.232;5.196;2023-07-08T04:50:43;6.57;;;4.68;;
48268;SDS011;34088;52.232;5.196;2023-07-08T04:53:09;6.90;;;4.65;;
48268;SDS011;34088;52.232;5.196;2023-07-08T04:55:36;8.27;;;4.68;;
48268;SDS011;34088;52.232;5.196;2023-07-08T04:58:05;7.53;;;4.82;;
48268;SDS011;34088;52.232;5.196;2023-07-08T05:00:31;5.75;;;4.45;;
48268;SDS011;34088;52.232;5.196;2023-07-08T05:02:56;8.13;;;4.97;;
48268;SDS011;34088;52.232;5.196;2023-07-08T05:05:21;7.80;;;4.93;;
48268;SDS011;34088;52.232;5.196;2023-07-08T05:07:47;6.63;;;4.63;;
48268;SDS011;34088;52.232;5.196;2023-07-08T05:10:14;6.55;;;4.90;;
48268;SDS011;34088;52.232;5.196;2023-07-08T05:12:40;7.40;;;4.57;;
48268;SDS011;34088;52.232;5.196;2023-07-08T05:15:06;5.90;;;4.88;;
48268;SDS011;34088;52.232;5.196;2023-07-08T05:17:32;8.10;;;4.57;;
48268;SDS011;34088;52.232;5.196;2023-07-08T05:19:57;5.50;;;4.70;;
48268;SDS011;34088;52.232;5.196;2023-07-08T05:22:25;6.25;;;4.40;;
48268;SDS011;34088;52.232;5.196;2023-07-08T05:24:52;5.97;;;4.43;;
48268;SDS011;34088;52.232;5.196;2023-07-08T05:27:20;6.90;;;4.57;;
48268;SDS011;34088;52.232;5.196;2023-07-08T05:29:47;6.25;;;4.68;;
48268;SDS011;34088;52.232;5.196;2023-07-08T05:32:13;7.95;;;4.60;;
48268;SDS011;34088;52.232;5.196;2023-07-08T05:34:38;10.38;;;4.90;;
48268;SDS011;34088;52.232;5.196;2023-07-08T05:37:04;7.43;;;4.40;;
48268;SDS011;34088;52.232;5.196;2023-07-08T05:39:30;7.10;;;4.93;;
48268;SDS011;34088;52.232;5.196;2023-07-08T05:41:55;8.10;;;4.78;;
48268;SDS011;34088;52.232;5.196;2023-07-08T05:44:21;7.05;;;5.10;;
48268;SDS011;34088;52.232;5.196;2023-07-08T05:46:46;6.95;;;5.13;;
48268;SDS011;34088;52.232;5.196;2023-07-08T05:49:11;6.10;;;4.38;;
48268;SDS011;34088;52.232;5.196;2023-07-08T05:51:37;6.03;;;4.47;;
48268;SDS011;34088;52.232;5.196;2023-07-08T05:54:03;7.05;;;4.78;;
48268;SDS011;34088;52.232;5.196;2023-07-08T05:56:28;7.75;;;4.78;;
48268;SDS011;34088;52.232;5.196;2023-07-08T05:58:55;6.38;;;5.05;;
48268;SDS011;34088;52.232;5.196;2023-07-08T06:01:21;9.80;;;4.82;;
48268;SDS011;34088;52.232;5.196;2023-07-08T06:03:46;7.63;;;5.00;;
48268;SDS011;34088;52.232;5.196;2023-07-08T06:06:12;6.60;;;5.07;;
48268;SDS011;34088;52.232;5.196;2023-07-08T06:08:37;6.97;;;4.82;;
48268;SDS011;34088;52.232;5.196;2023-07-08T06:11:03;7.50;;;4.82;;
48268;SDS011;34088;52.232;5.196;2023-07-08T06:13:28;6.35;;;5.07;;
48268;SDS011;34088;52.232;5.196;2023-07-08T06:15:53;8.35;;;5.00;;
48268;SDS011;34088;52.232;5.196;2023-07-08T06:18:19;8.70;;;5.03;;
48268;SDS011;34088;52.232;5.196;2023-07-08T06:20:50;7.28;;;5.70;;
48268;SDS011;34088;52.232;5.196;2023-07-08T06:23:19;7.50;;;4.90;;
48268;SDS011;34088;52.232;5.196;2023-07-08T06:25:44;7.85;;;5.03;;
48268;SDS011;34088;52.232;5.196;2023-07-08T06:28:09;8.15;;;4.90;;
48268;SDS011;34088;52.232;5.196;2023-07-08T06:30:35;9.40;;;4.95;;
48268;SDS011;34088;52.232;5.196;2023-07-08T06:33:00;7.30;;;4.65;;
48268;SDS011;34088;52.232;5.196;2023-07-08T06:35:25;8.30;;;4.80;;
48268;SDS011;34088;52.232;5.196;2023-07-08T06:37:50;6.47;;;4.47;;
48268;SDS011;34088;52.232;5.196;2023-07-08T06:40:16;7.70;;;4.68;;
48268;SDS011;34088;52.232;5.196;2023-07-08T06:42:43;8.00;;;4.68;;
48268;SDS011;34088;52.232;5.196;2023-07-08T06:45:09;6.40;;;4.60;;
48268;SDS011;34088;52.232;5.196;2023-07-08T06:47:35;7.32;;;4.63;;
48268;SDS011;34088;52.232;5.196;2023-07-08T06:50:00;6.72;;;5.05;;
48268;SDS011;34088;52.232;5.196;2023-07-08T06:52:25;9.85;;;4.45;;
48268;SDS011;34088;52.232;5.196;2023-07-08T06:54:51;8.85;;;5.00;;
48268;SDS011;34088;52.232;5.196;2023-07-08T06:57:16;6.63;;;4.65;;
48268;SDS011;34088;52.232;5.196;2023-07-08T06:59:41;7.25;;;4.75;;
48268;SDS011;34088;52.232;5.196;2023-07-08T07:02:07;7.95;;;5.05;;
48268;SDS011;34088;52.232;5.196;2023-07-08T07:04:33;6.70;;;5.05;;
48268;SDS011;34088;52.232;5.196;2023-07-08T07:06:58;6.65;;;4.60;;
48268;SDS011;34088;52.232;5.196;2023-07-08T07:09:24;8.00;;;4.78;;
48268;SDS011;34088;52.232;5.196;2023-07-08T07:11:49;9.38;;;4.93;;
48268;SDS011;34088;52.232;5.196;2023-07-08T07:14:14;8.57;;;4.90;;
48268;SDS011;34088;52.232;5.196;2023-07-08T07:16:39;8.93;;;3.88;;
48268;SDS011;34088;52.232;5.196;2023-07-08T07:19:05;7.40;;;4.32;;
48268;SDS011;34088;52.232;5.196;2023-07-08T07:21:30;6.03;;;4.45;;
48268;SDS011;34088;52.232;5.196;2023-07-08T07:23:55;7.18;;;4.55;;
48268;SDS011;34088;52.232;5.196;2023-07-08T07:26:21;9.25;;;4.53;;
48268;SDS011;34088;52.232;5.196;2023-07-08T07:28:46;7.40;;;4.32;;
48268;SDS011;34088;52.232;5.196;2023-07-08T07:31:11;6.32;;;3.85;;
48268;SDS011;34088;52.232;5.196;2023-07-08T07:33:37;5.80;;;3.85;;
48268;SDS011;34088;52.232;5.196;2023-07-08T07:36:02;6.40;;;4.50;;
48268;SDS011;34088;52.232;5.196;2023-07-08T07:38:28;8.60;;;3.92;;
48268;SDS011;34088;52.232;5.196;2023-07-08T07:40:54;6.10;;;4.00;;
48268;SDS011;34088;52.232;5.196;2023-07-08T07:43:20;6.90;;;4.20;;
48268;SDS011;34088;52.232;5.196;2023-07-08T07:45:49;6.65;;;4.18;;
48268;SDS011;34088;52.232;5.196;2023-07-08T07:48:17;9.70;;;4.40;;
48268;SDS011;34088;52.232;5.196;2023-07-08T07:50:45;5.20;;;4.30;;
48268;SDS011;34088;52.232;5.196;2023-07-08T07:53:12;7.03;;;4.15;;
48268;SDS011;34088;52.232;5.196;2023-07-08T07:55:37;9.50;;;4.45;;
48268;SDS011;34088;52.232;5.196;2023-07-08T07:58:03;8.45;;;4.07;;
48268;SDS011;34088;52.232;5.196;2023-07-08T08:00:29;8.10;;;4.00;;
48268;SDS011;34088;52.232;5.196;2023-07-08T08:02:55;7.07;;;4.07;;
48268;SDS011;34088;52.232;5.196;2023-07-08T08:05:20;7.40;;;4.10;;
48268;SDS011;34088;52.232;5.196;2023-07-08T08:07:46;7.85;;;4.30;;
48268;SDS011;34088;52.232;5.196;2023-07-08T08:10:12;7.03;;;4.18;;
48268;SDS011;34088;52.232;5.196;2023-07-08T08:12:38;7.15;;;4.38;;
48268;SDS011;34088;52.232;5.196;2023-07-08T08:15:04;7.60;;;4.28;;
48268;SDS011;34088;52.232;5.196;2023-07-08T08:17:29;11.65;;;4.50;;
48268;SDS011;34088;52.232;5.196;2023-07-08T08:19:55;8.15;;;4.60;;
48268;SDS011;34088;52.232;5.196;2023-07-08T08:22:20;6.50;;;4.07;;
48268;SDS011;34088;52.232;5.196;2023-07-08T08:24:46;7.20;;;4.00;;
48268;SDS011;34088;52.232;5.196;2023-07-08T08:27:11;7.82;;;4.30;;
48268;SDS011;34088;52.232;5.196;2023-07-08T08:29:37;7.28;;;4.50;;
48268;SDS011;34088;52.232;5.196;2023-07-08T08:32:02;7.43;;;4.47;;
48268;SDS011;34088;52.232;5.196;2023-07-08T08:34:27;6.05;;;4.57;;
48268;SDS011;34088;52.232;5.196;2023-07-08T08:36:53;7.00;;;4.68;;
48268;SDS011;34088;52.232;5.196;2023-07-08T08:39:20;9.68;;;4.55;;
48268;SDS011;34088;52.232;5.196;2023-07-08T08:41:46;6.72;;;4.40;;
48268;SDS011;34088;52.232;5.196;2023-07-08T08:44:15;8.15;;;4.32;;
48268;SDS011;34088;52.232;5.196;2023-07-08T08:51:45;9.20;;;4.03;;
48268;SDS011;34088;52.232;5.196;2023-07-08T08:54:12;6.38;;;4.47;;
48268;SDS011;34088;52.232;5.196;2023-07-08T08:59:27;6.65;;;4.22;;
48268;SDS011;34088;52.232;5.196;2023-07-08T09:05:06;6.57;;;4.40;;
48268;SDS011;34088;52.232;5.196;2023-07-08T09:07:36;10.05;;;4.25;;
48268;SDS011;34088;52.232;5.196;2023-07-08T09:10:13;6.10;;;4.50;;
48268;SDS011;34088;52.232;5.196;2023-07-08T09:12:46;8.02;;;4.50;;
48268;SDS011;34088;52.232;5.196;2023-07-08T09:15:16;8.25;;;4.65;;
48268;SDS011;34088;52.232;5.196;2023-07-08T09:17:42;9.27;;;4.57;;
48268;SDS011;34088;52.232;5.196;2023-07-08T09:20:26;7.25;;;4.20;;
48268;SDS011;34088;52.232;5.196;2023-07-08T09:25:48;7.80;;;4.88;;
48268;SDS011;34088;52.232;5.196;2023-07-08T09:28:19;7.38;;;4.90;;
48268;SDS011;34088;52.232;5.196;2023-07-08T09:30:48;8.40;;;5.50;;
48268;SDS011;34088;52.232;5.196;2023-07-08T09:33:18;7.43;;;5.18;;
48268;SDS011;34088;52.232;5.196;2023-07-08T09:35:45;6.07;;;4.90;;
48268;SDS011;34088;52.232;5.196;2023-07-08T09:38:16;7.80;;;4.90;;
48268;SDS011;34088;52.232;5.196;2023-07-08T09:40:49;5.80;;;4.45;;
48268;SDS011;34088;52.232;5.196;2023-07-08T09:46:01;6.93;;;4.63;;
48268;SDS011;34088;52.232;5.196;2023-07-08T09:48:28;6.45;;;4.72;;
48268;SDS011;34088;52.232;5.196;2023-07-08T09:50:56;7.22;;;5.00;;
48268;SDS011;34088;52.232;5.196;2023-07-08T09:53:22;5.88;;;4.72;;
48268;SDS011;34088;52.232;5.196;2023-07-08T09:55:51;9.15;;;5.25;;
48268;SDS011;34088;52.232;5.196;2023-07-08T09:58:23;9.45;;;5.13;;
48268;SDS011;34088;52.232;5.196;2023-07-08T10:00:54;7.15;;;5.50;;
48268;SDS011;34088;52.232;5.196;2023-07-08T10:03:23;10.60;;;5.38;;
48268;SDS011;34088;52.232;5.196;2023-07-08T10:05:52;7.43;;;5.45;;
48268;SDS011;34088;52.232;5.196;2023-07-08T10:08:22;7.05;;;5.00;;
48268;SDS011;34088;52.232;5.196;2023-07-08T10:11:32;7.78;;;5.60;;
48268;SDS011;34088;52.232;5.196;2023-07-08T10:13:48;8.05;;;5.00;;
48268;SDS011;34088;52.232;5.196;2023-07-08T10:18:52;6.55;;;5.05;;
48268;SDS011;34088;52.232;5.196;2023-07-08T10:21:34;8.18;;;5.35;;
48268;SDS011;34088;52.232;5.196;2023-07-08T10:26:47;9.57;;;5.60;;
48268;SDS011;34088;52.232;5.196;2023-07-08T10:49:03;8.43;;;5.68;;
48268;SDS011;34088;52.232;5.196;2023-07-08T10:57:02;9.07;;;5.53;;
48268;SDS011;34088;52.232;5.196;2023-07-08T11:02:39;9.07;;;5.80;;
48268;SDS011;34088;52.232;5.196;2023-07-08T11:10:28;7.75;;;5.68;;
48268;SDS011;34088;52.232;5.196;2023-07-08T11:13:04;10.02;;;5.70;;
48268;SDS011;34088;52.232;5.196;2023-07-08T11:20:47;8.93;;;5.60;;
48268;SDS011;34088;52.232;5.196;2023-07-08T11:26:49;9.20;;;6.18;;
48268;SDS011;34088;52.232;5.196;2023-07-08T11:29:17;8.18;;;6.28;;
48268;SDS011;34088;52.232;5.196;2023-07-08T11:31:46;10.52;;;6.32;;
48268;SDS011;34088;52.232;5.196;2023-07-08T11:34:13;10.05;;;6.85;;
48268;SDS011;34088;52.232;5.196;2023-07-08T11:36:41;7.95;;;6.25;;
48268;SDS011;34088;52.232;5.196;2023-07-08T11:42:11;8.88;;;6.65;;
48268;SDS011;34088;52.232;5.196;2023-07-08T11:44:48;8.52;;;6.38;;
48268;SDS011;34088;52.232;5.196;2023-07-08T11:49:50;10.80;;;6.50;;
48268;SDS011;34088;52.232;5.196;2023-07-08T11:52:18;9.07;;;6.15;;
48268;SDS011;34088;52.232;5.196;2023-07-08T11:54:46;10.00;;;6.55;;
48268;SDS011;34088;52.232;5.196;2023-07-08T11:57:17;12.43;;;6.97;;
48268;SDS011;34088;52.232;5.196;2023-07-08T11:59:55;9.97;;;6.47;;
48268;SDS011;34088;52.232;5.196;2023-07-08T12:02:47;9.82;;;7.22;;
48268;SDS011;34088;52.232;5.196;2023-07-08T12:05:14;10.15;;;6.60;;
48268;SDS011;34088;52.232;5.196;2023-07-08T12:07:52;9.98;;;6.97;;
48268;SDS011;34088;52.232;5.196;2023-07-08T12:12:52;8.63;;;6.40;;
48268;SDS011;34088;52.232;5.196;2023-07-08T12:15:25;10.45;;;6.85;;
48268;SDS011;34088;52.232;5.196;2023-07-08T12:17:54;8.73;;;7.00;;
48268;SDS011;34088;52.232;5.196;2023-07-08T12:20:29;9.60;;;6.80;;
48268;SDS011;34088;52.232;5.196;2023-07-08T12:25:25;9.17;;;6.97;;
48268;SDS011;34088;52.232;5.196;2023-07-08T12:27:59;10.20;;;6.53;;
48268;SDS011;34088;52.232;5.196;2023-07-08T12:30:25;9.57;;;6.50;;
48268;SDS011;34088;52.232;5.196;2023-07-08T12:32:53;8.88;;;6.97;;
48268;SDS011;34088;52.232;5.196;2023-07-08T12:35:24;7.93;;;6.57;;
48268;SDS011;34088;52.232;5.196;2023-07-08T12:37:53;9.77;;;7.15;;
48268;SDS011;34088;52.232;5.196;2023-07-08T12:40:21;9.10;;;6.75;;
48268;SDS011;34088;52.232;5.196;2023-07-08T12:42:47;8.80;;;6.57;;
48268;SDS011;34088;52.232;5.196;2023-07-08T12:45:16;9.82;;;6.57;;
48268;SDS011;34088;52.232;5.196;2023-07-08T12:47:44;9.23;;;6.60;;
48268;SDS011;34088;52.232;5.196;2023-07-08T12:50:10;10.95;;;6.75;;
48268;SDS011;34088;52.232;5.196;2023-07-08T12:52:37;9.43;;;7.22;;
48268;SDS011;34088;52.232;5.196;2023-07-08T12:55:02;11.02;;;6.63;;
48268;SDS011;34088;52.232;5.196;2023-07-08T12:57:28;10.25;;;6.30;;
48268;SDS011;34088;52.232;5.196;2023-07-08T12:59:53;9.43;;;5.97;;
48268;SDS011;34088;52.232;5.196;2023-07-08T13:02:19;9.23;;;6.18;;
48268;SDS011;34088;52.232;5.196;2023-07-08T13:04:49;9.27;;;6.85;;
48268;SDS011;34088;52.232;5.196;2023-07-08T13:07:39;8.52;;;5.95;;
48268;SDS011;34088;52.232;5.196;2023-07-08T13:10:07;10.07;;;6.60;;
48268;SDS011;34088;52.232;5.196;2023-07-08T13:12:42;8.93;;;5.80;;
48268;SDS011;34088;52.232;5.196;2023-07-08T13:15:10;16.58;;;6.75;;
48268;SDS011;34088;52.232;5.196;2023-07-08T13:17:42;12.15;;;7.15;;
48268;SDS011;34088;52.232;5.196;2023-07-08T13:20:12;11.55;;;6.55;;
48268;SDS011;34088;52.232;5.196;2023-07-08T13:22:40;10.13;;;6.32;;
48268;SDS011;34088;52.232;5.196;2023-07-08T13:25:12;10.05;;;6.03;;
48268;SDS011;34088;52.232;5.196;2023-07-08T13:27:40;8.65;;;6.03;;
48268;SDS011;34088;52.232;5.196;2023-07-08T13:30:16;9.02;;;6.30;;
48268;SDS011;34088;52.232;5.196;2023-07-08T13:32:44;10.02;;;6.38;;
48268;SDS011;34088;52.232;5.196;2023-07-08T13:35:22;12.27;;;6.90;;
48268;SDS011;34088;52.232;5.196;2023-07-08T13:38:04;9.07;;;6.63;;
48268;SDS011;34088;52.232;5.196;2023-07-08T13:40:30;9.52;;;6.68;;
48268;SDS011;34088;52.232;5.196;2023-07-08T13:42:56;8.23;;;6.22;;
48268;SDS011;34088;52.232;5.196;2023-07-08T13:45:23;8.23;;;6.10;;
48268;SDS011;34088;52.232;5.196;2023-07-08T13:47:59;9.23;;;6.38;;
48268;SDS011;34088;52.232;5.196;2023-07-08T13:50:48;9.13;;;6.18;;
48268;SDS011;34088;52.232;5.196;2023-07-08T13:53:23;11.25;;;7.15;;
48268;SDS011;34088;52.232;5.196;2023-07-08T13:56:02;10.20;;;6.50;;
48268;SDS011;34088;52.232;5.196;2023-07-08T13:58:29;8.23;;;6.45;;
48268;SDS011;34088;52.232;5.196;2023-07-08T14:00:55;9.80;;;6.63;;
48268;SDS011;34088;52.232;5.196;2023-07-08T14:03:21;9.13;;;5.85;;
48268;SDS011;34088;52.232;5.196;2023-07-08T14:05:47;8.70;;;6.60;;
48268;SDS011;34088;52.232;5.196;2023-07-08T14:08:13;7.53;;;5.93;;
48268;SDS011;34088;52.232;5.196;2023-07-08T14:10:39;9.70;;;6.05;;
48268;SDS011;34088;52.232;5.196;2023-07-08T14:13:05;9.88;;;6.00;;
48268;SDS011;34088;52.232;5.196;2023-07-08T14:15:30;8.93;;;5.80;;
48268;SDS011;34088;52.232;5.196;2023-07-08T14:17:57;10.15;;;6.55;;
48268;SDS011;34088;52.232;5.196;2023-07-08T14:20:23;10.80;;;6.30;;
48268;SDS011;34088;52.232;5.196;2023-07-08T14:22:52;9.23;;;5.95;;
48268;SDS011;34088;52.232;5.196;2023-07-08T14:25:18;9.25;;;6.38;;
48268;SDS011;34088;52.232;5.196;2023-07-08T14:27:45;8.70;;;6.32;;
48268;SDS011;34088;52.232;5.196;2023-07-08T14:30:11;8.23;;;6.28;;
48268;SDS011;34088;52.232;5.196;2023-07-08T14:32:37;8.20;;;6.80;;
48268;SDS011;34088;52.232;5.196;2023-07-08T14:35:45;10.48;;;6.53;;
48268;SDS011;34088;52.232;5.196;2023-07-08T14:37:53;10.68;;;6.90;;
48268;SDS011;34088;52.232;5.196;2023-07-08T14:42:51;9.55;;;6.38;;
48268;SDS011;34088;52.232;5.196;2023-07-08T14:45:38;8.52;;;5.50;;
48268;SDS011;34088;52.232;5.196;2023-07-08T14:48:10;9.15;;;6.10;;
48268;SDS011;34088;52.232;5.196;2023-07-08T14:50:36;8.90;;;6.38;;
48268;SDS011;34088;52.232;5.196;2023-07-08T14:53:02;8.00;;;5.80;;
48268;SDS011;34088;52.232;5.196;2023-07-08T14:55:27;10.80;;;5.68;;
48268;SDS011;34088;52.232;5.196;2023-07-08T14:57:53;10.52;;;6.40;;
48268;SDS011;34088;52.232;5.196;2023-07-08T15:00:20;8.85;;;6.32;;
48268;SDS011;34088;52.232;5.196;2023-07-08T15:02:46;9.32;;;6.03;;
48268;SDS011;34088;52.232;5.196;2023-07-08T15:05:16;7.65;;;6.03;;
48268;SDS011;34088;52.232;5.196;2023-07-08T15:07:44;10.90;;;6.00;;
48268;SDS011;34088;52.232;5.196;2023-07-08T15:10:13;8.90;;;5.75;;
48268;SDS011;34088;52.232;5.196;2023-07-08T15:12:38;8.10;;;5.90;;
48268;SDS011;34088;52.232;5.196;2023-07-08T15:15:04;9.88;;;6.13;;
48268;SDS011;34088;52.232;5.196;2023-07-08T15:17:30;8.77;;;5.78;;
48268;SDS011;34088;52.232;5.196;2023-07-08T15:19:55;9.00;;;5.57;;
48268;SDS011;34088;52.232;5.196;2023-07-08T15:22:21;7.40;;;5.53;;
48268;SDS011;34088;52.232;5.196;2023-07-08T15:24:46;9.88;;;6.40;;
48268;SDS011;34088;52.232;5.196;2023-07-08T15:27:11;8.30;;;5.90;;
48268;SDS011;34088;52.232;5.196;2023-07-08T15:29:38;10.98;;;5.72;;
48268;SDS011;34088;52.232;5.196;2023-07-08T15:32:04;10.05;;;6.03;;
48268;SDS011;34088;52.232;5.196;2023-07-08T15:34:37;8.18;;;5.50;;
48268;SDS011;34088;52.232;5.196;2023-07-08T15:37:02;9.73;;;6.32;;
48268;SDS011;34088;52.232;5.196;2023-07-08T15:39:28;9.88;;;5.50;;
48268;SDS011;34088;52.232;5.196;2023-07-08T15:41:53;8.10;;;5.65;;
48268;SDS011;34088;52.232;5.196;2023-07-08T15:44:18;8.32;;;5.50;;
48268;SDS011;34088;52.232;5.196;2023-07-08T15:46:45;10.43;;;6.10;;
48268;SDS011;34088;52.232;5.196;2023-07-08T15:49:17;7.13;;;5.50;;
48268;SDS011;34088;52.232;5.196;2023-07-08T15:51:44;9.55;;;6.47;;
48268;SDS011;34088;52.232;5.196;2023-07-08T15:54:11;7.65;;;5.72;;
48268;SDS011;34088;52.232;5.196;2023-07-08T15:56:37;9.88;;;6.30;;
48268;SDS011;34088;52.232;5.196;2023-07-08T15:59:03;10.55;;;6.18;;
48268;SDS011;34088;52.232;5.196;2023-07-08T16:01:29;11.57;;;6.50;;
48268;SDS011;34088;52.232;5.196;2023-07-08T16:03:55;9.27;;;6.05;;
48268;SDS011;34088;52.232;5.196;2023-07-08T16:06:20;11.80;;;6.20;;
48268;SDS011;34088;52.232;5.196;2023-07-08T16:08:46;9.32;;;5.90;;
48268;SDS011;34088;52.232;5.196;2023-07-08T16:11:15;10.18;;;6.30;;
48268;SDS011;34088;52.232;5.196;2023-07-08T16:13:45;15.60;;;6.53;;
48268;SDS011;34088;52.232;5.196;2023-07-08T16:16:12;10.48;;;6.68;;
48268;SDS011;34088;52.232;5.196;2023-07-08T16:18:37;9.85;;;6.93;;
48268;SDS011;34088;52.232;5.196;2023-07-08T16:21:03;10.57;;;6.57;;
48268;SDS011;34088;52.232;5.196;2023-07-08T16:23:30;8.93;;;6.63;;